This is the latest recevied weather packets stored in our database for station/object KJ7BRE-1. If no packets are shown the sender has not sent any weather packets the latest 10 day(s).
| Time | Temp. | Humidity | Pressure | Rain* | Wind** | Luminosity | Snow |
|---|---|---|---|---|---|---|---|
| 1787958995 | 23.89° C | 48% | 1013.9 hPa | 0 mm | - | - | - |
| 1787958694 | 23.33° C | 48% | 1014.2 hPa | 0 mm | - | - | - |
| 1787958392 | 23.33° C | 50% | 1014.2 hPa | 0 mm | - | - | - |
| 1787958091 | 23.33° C | 49% | 1014.2 hPa | 0 mm | - | - | - |
| 1787957489 | 23.33° C | 49% | 1014.6 hPa | 0 mm | - | - | - |
| 1787957187 | 23.89° C | 49% | 1014.6 hPa | 0 mm | - | - | - |
| 1787956886 | 23.89° C | 49% | 1014.6 hPa | 0 mm | - | - | - |
| 1787956585 | 23.89° C | 48% | 1014.6 hPa | 0 mm | - | - | - |
| 1787956284 | 24.44° C | 47% | 1014.6 hPa | 0 mm | - | - | - |
| 1787955681 | 23.33° C | 52% | 1014.6 hPa | 0 mm | - | - | - |
| 1787955380 | 23.33° C | 50% | 1014.6 hPa | 0 mm | - | - | - |
| 1787955079 | 23.33° C | 48% | 1014.6 hPa | 0 mm | - | - | - |
| 1787954778 | 23.33° C | 49% | 1014.9 hPa | 0 mm | - | - | - |
| 1787954476 | 23.33° C | 49% | 1014.9 hPa | 0 mm | - | - | - |
| 1787954175 | 23.89° C | 49% | 1014.9 hPa | 0 mm | - | - | - |
| 1787953874 | 24.44° C | 50% | 1014.9 hPa | 0 mm | - | - | - |
| 1787953572 | 24.44° C | 48% | 1014.9 hPa | 0 mm | - | - | - |
| 1787953271 | 23.89° C | 50% | 1014.9 hPa | 0 mm | - | - | - |
| 1787952970 | 23.89° C | 50% | 1015.2 hPa | 0 mm | - | - | - |
| 1787952668 | 24.44° C | 49% | 1015.2 hPa | 0 mm | - | - | - |
| 1787952367 | 23.89° C | 50% | 1015.2 hPa | 0 mm | - | - | - |
| 1787952066 | 23.33° C | 51% | 1015.2 hPa | 0 mm | - | - | - |
| 1787951765 | 23.33° C | 51% | 1015.6 hPa | 0 mm | - | - | - |
| 1787951464 | 23.33° C | 50% | 1015.6 hPa | 0 mm | - | - | - |
| 1787951162 | 23.89° C | 50% | 1015.6 hPa | 0 mm | - | - | - |
* Rain latest hour (hover to see other rain measurements)
** Current wind speed in m/s (hover to see current wind gust speed)